sensor_id;sensor_type;location;lat;lon;timestamp;temperature;humidity
36244;DHT22;22284;49.956;19.816;2022-12-19T00:02:25;-8.74;51.50
36244;DHT22;22284;49.956;19.816;2022-12-19T00:05:26;-8.76;51.51
36244;DHT22;22284;49.956;19.816;2022-12-19T00:22:05;-8.57;52.60
36244;DHT22;22284;49.956;19.816;2022-12-19T00:25:07;-8.62;51.67
36244;DHT22;22284;49.956;19.816;2022-12-19T00:28:08;-8.73;51.20
36244;DHT22;22284;49.956;19.816;2022-12-19T00:31:10;-8.80;51.32
36244;DHT22;22284;49.956;19.816;2022-12-19T00:34:11;-8.84;50.79
36244;DHT22;22284;49.956;19.816;2022-12-19T00:37:12;-8.90;51.07
36244;DHT22;22284;49.956;19.816;2022-12-19T00:40:13;-8.83;51.61
36244;DHT22;22284;49.956;19.816;2022-12-19T00:43:13;-8.87;51.51
36244;DHT22;22284;49.956;19.816;2022-12-19T00:46:15;-8.84;51.58
36244;DHT22;22284;49.956;19.816;2022-12-19T00:49:16;-8.73;51.56
36244;DHT22;22284;49.956;19.816;2022-12-19T00:52:17;-8.66;51.70
36244;DHT22;22284;49.956;19.816;2022-12-19T00:55:18;-8.57;51.83
36244;DHT22;22284;49.956;19.816;2022-12-19T00:58:19;-8.49;51.64
36244;DHT22;22284;49.956;19.816;2022-12-19T01:01:32;-8.48;51.43
36244;DHT22;22284;49.956;19.816;2022-12-19T01:04:34;-8.49;51.24
36244;DHT22;22284;49.956;19.816;2022-12-19T01:07:35;-8.48;51.15
36244;DHT22;22284;49.956;19.816;2022-12-19T01:10:36;-8.45;51.12
36244;DHT22;22284;49.956;19.816;2022-12-19T01:13:39;-8.38;50.96
36244;DHT22;22284;49.956;19.816;2022-12-19T01:16:40;-8.39;50.89
36244;DHT22;22284;49.956;19.816;2022-12-19T01:19:41;-8.42;50.74
36244;DHT22;22284;49.956;19.816;2022-12-19T01:22:43;-8.46;50.92
36244;DHT22;22284;49.956;19.816;2022-12-19T01:25:48;-8.46;51.12
36244;DHT22;22284;49.956;19.816;2022-12-19T01:28:50;-8.46;51.11
36244;DHT22;22284;49.956;19.816;2022-12-19T01:31:51;-8.54;51.03
36244;DHT22;22284;49.956;19.816;2022-12-19T01:34:52;-8.57;50.57
36244;DHT22;22284;49.956;19.816;2022-12-19T01:37:53;-8.64;50.31
36244;DHT22;22284;49.956;19.816;2022-12-19T01:40:56;-8.66;50.70
36244;DHT22;22284;49.956;19.816;2022-12-19T01:44:04;-8.69;51.16
36244;DHT22;22284;49.956;19.816;2022-12-19T01:47:07;-8.66;51.73
36244;DHT22;22284;49.956;19.816;2022-12-19T01:50:14;-8.64;51.83
36244;DHT22;22284;49.956;19.816;2022-12-19T01:53:16;-8.63;51.72
36244;DHT22;22284;49.956;19.816;2022-12-19T01:56:28;-8.62;51.51
36244;DHT22;22284;49.956;19.816;2022-12-19T01:59:42;-8.60;51.25
36244;DHT22;22284;49.956;19.816;2022-12-19T02:02:59;-8.63;51.25
36244;DHT22;22284;49.956;19.816;2022-12-19T02:06:01;-8.60;51.31
36244;DHT22;22284;49.956;19.816;2022-12-19T02:09:03;-8.60;51.38
36244;DHT22;22284;49.956;19.816;2022-12-19T02:12:05;-8.52;51.52
36244;DHT22;22284;49.956;19.816;2022-12-19T02:15:08;-8.49;51.63
36244;DHT22;22284;49.956;19.816;2022-12-19T02:18:22;-8.49;51.36
36244;DHT22;22284;49.956;19.816;2022-12-19T02:21:41;-8.48;51.30
36244;DHT22;22284;49.956;19.816;2022-12-19T02:25:04;-8.48;50.87
36244;DHT22;22284;49.956;19.816;2022-12-19T02:32:02;-8.49;50.80
36244;DHT22;22284;49.956;19.816;2022-12-19T02:35:06;-8.49;50.22
36244;DHT22;22284;49.956;19.816;2022-12-19T02:41:43;-8.62;50.54
36244;DHT22;22284;49.956;19.816;2022-12-19T02:44:49;-8.64;50.42
36244;DHT22;22284;49.956;19.816;2022-12-19T02:47:51;-8.66;50.50
36244;DHT22;22284;49.956;19.816;2022-12-19T02:50:52;-8.70;50.30
36244;DHT22;22284;49.956;19.816;2022-12-19T02:53:53;-8.69;50.44
36244;DHT22;22284;49.956;19.816;2022-12-19T03:00:24;-8.76;50.57
36244;DHT22;22284;49.956;19.816;2022-12-19T03:03:35;-8.85;50.54
36244;DHT22;22284;49.956;19.816;2022-12-19T03:06:46;-8.90;50.65
36244;DHT22;22284;49.956;19.816;2022-12-19T03:09:59;-8.88;50.70
36244;DHT22;22284;49.956;19.816;2022-12-19T03:13:31;-8.84;50.73
36244;DHT22;22284;49.956;19.816;2022-12-19T03:16:36;-8.77;50.98
36244;DHT22;22284;49.956;19.816;2022-12-19T03:19:39;-8.83;50.77
36244;DHT22;22284;49.956;19.816;2022-12-19T03:22:40;-8.84;50.70
36244;DHT22;22284;49.956;19.816;2022-12-19T03:25:46;-8.84;50.71
36244;DHT22;22284;49.956;19.816;2022-12-19T03:32:03;-8.91;50.55
36244;DHT22;22284;49.956;19.816;2022-12-19T03:35:16;-8.98;49.67
36244;DHT22;22284;49.956;19.816;2022-12-19T03:38:18;-9.11;50.12
36244;DHT22;22284;49.956;19.816;2022-12-19T03:41:21;-9.08;50.86
36244;DHT22;22284;49.956;19.816;2022-12-19T03:44:30;-9.04;51.22
36244;DHT22;22284;49.956;19.816;2022-12-19T03:47:36;-8.98;51.35
36244;DHT22;22284;49.956;19.816;2022-12-19T03:54:01;-8.90;51.03
36244;DHT22;22284;49.956;19.816;2022-12-19T03:57:12;-8.85;51.15
36244;DHT22;22284;49.956;19.816;2022-12-19T04:00:15;-8.81;51.29
36244;DHT22;22284;49.956;19.816;2022-12-19T04:03:18;-8.81;51.26
36244;DHT22;22284;49.956;19.816;2022-12-19T04:06:20;-8.80;51.24
36244;DHT22;22284;49.956;19.816;2022-12-19T04:09:23;-8.76;51.18
36244;DHT22;22284;49.956;19.816;2022-12-19T04:12:29;-8.76;50.92
36244;DHT22;22284;49.956;19.816;2022-12-19T04:18:43;-8.81;50.79
36244;DHT22;22284;49.956;19.816;2022-12-19T04:21:58;-8.78;50.92
36244;DHT22;22284;49.956;19.816;2022-12-19T04:25:02;-8.73;51.40
36244;DHT22;22284;49.956;19.816;2022-12-19T04:28:19;-8.80;51.29
36244;DHT22;22284;49.956;19.816;2022-12-19T04:31:21;-8.81;50.93
36244;DHT22;22284;49.956;19.816;2022-12-19T04:34:22;-8.78;50.95
36244;DHT22;22284;49.956;19.816;2022-12-19T04:37:23;-8.78;51.07
36244;DHT22;22284;49.956;19.816;2022-12-19T04:40:25;-8.74;51.13
36244;DHT22;22284;49.956;19.816;2022-12-19T04:43:26;-8.67;50.99
36244;DHT22;22284;49.956;19.816;2022-12-19T04:46:27;-8.71;51.01
36244;DHT22;22284;49.956;19.816;2022-12-19T04:49:28;-8.69;51.00
36244;DHT22;22284;49.956;19.816;2022-12-19T04:52:28;-8.71;50.76
36244;DHT22;22284;49.956;19.816;2022-12-19T04:55:29;-8.69;50.94
36244;DHT22;22284;49.956;19.816;2022-12-19T04:58:31;-8.63;51.08
36244;DHT22;22284;49.956;19.816;2022-12-19T05:01:32;-8.57;51.12
36244;DHT22;22284;49.956;19.816;2022-12-19T05:04:33;-8.54;51.00
36244;DHT22;22284;49.956;19.816;2022-12-19T05:07:34;-8.56;50.84
36244;DHT22;22284;49.956;19.816;2022-12-19T05:10:36;-8.53;50.61
36244;DHT22;22284;49.956;19.816;2022-12-19T05:13:37;-8.56;50.15
36244;DHT22;22284;49.956;19.816;2022-12-19T05:16:38;-8.60;50.01
36244;DHT22;22284;49.956;19.816;2022-12-19T05:19:39;-8.64;49.96
36244;DHT22;22284;49.956;19.816;2022-12-19T05:22:40;-8.70;50.04
36244;DHT22;22284;49.956;19.816;2022-12-19T05:25:41;-8.64;50.55
36244;DHT22;22284;49.956;19.816;2022-12-19T05:28:42;-8.63;50.74
36244;DHT22;22284;49.956;19.816;2022-12-19T05:31:43;-8.60;50.69
36244;DHT22;22284;49.956;19.816;2022-12-19T05:34:44;-8.67;50.01
36244;DHT22;22284;49.956;19.816;2022-12-19T05:37:45;-8.73;49.93
36244;DHT22;22284;49.956;19.816;2022-12-19T05:40:46;-8.70;50.13
36244;DHT22;22284;49.956;19.816;2022-12-19T05:43:52;-8.67;50.53
36244;DHT22;22284;49.956;19.816;2022-12-19T05:46:54;-8.66;50.54
36244;DHT22;22284;49.956;19.816;2022-12-19T05:49:55;-8.69;50.96
36244;DHT22;22284;49.956;19.816;2022-12-19T05:52:56;-8.76;50.53
36244;DHT22;22284;49.956;19.816;2022-12-19T05:56:08;-8.85;50.39
36244;DHT22;22284;49.956;19.816;2022-12-19T05:59:06;-8.91;50.41
36244;DHT22;22284;49.956;19.816;2022-12-19T06:02:07;-8.95;50.28
36244;DHT22;22284;49.956;19.816;2022-12-19T06:05:08;-9.02;49.88
36244;DHT22;22284;49.956;19.816;2022-12-19T06:08:09;-9.05;50.29
36244;DHT22;22284;49.956;19.816;2022-12-19T06:11:12;-9.09;50.19
36244;DHT22;22284;49.956;19.816;2022-12-19T06:14:13;-9.07;50.22
36244;DHT22;22284;49.956;19.816;2022-12-19T06:17:14;-9.01;50.64
36244;DHT22;22284;49.956;19.816;2022-12-19T06:20:15;-8.99;50.53
36244;DHT22;22284;49.956;19.816;2022-12-19T06:23:16;-8.99;50.13
36244;DHT22;22284;49.956;19.816;2022-12-19T06:26:18;-9.01;50.27
36244;DHT22;22284;49.956;19.816;2022-12-19T06:29:20;-9.01;50.38
36244;DHT22;22284;49.956;19.816;2022-12-19T06:32:21;-9.02;50.20
36244;DHT22;22284;49.956;19.816;2022-12-19T06:35:21;-9.08;49.85
36244;DHT22;22284;49.956;19.816;2022-12-19T06:38:22;-9.11;49.62
36244;DHT22;22284;49.956;19.816;2022-12-19T06:41:24;-9.16;49.67
36244;DHT22;22284;49.956;19.816;2022-12-19T06:44:44;-9.26;49.55
36244;DHT22;22284;49.956;19.816;2022-12-19T06:47:47;-9.35;49.56
36244;DHT22;22284;49.956;19.816;2022-12-19T06:50:48;-9.47;49.47
36244;DHT22;22284;49.956;19.816;2022-12-19T06:53:49;-9.57;49.58
36244;DHT22;22284;49.956;19.816;2022-12-19T06:56:50;-9.63;49.73
36244;DHT22;22284;49.956;19.816;2022-12-19T06:59:52;-9.64;49.74
36244;DHT22;22284;49.956;19.816;2022-12-19T07:02:53;-9.59;50.03
36244;DHT22;22284;49.956;19.816;2022-12-19T07:05:55;-9.50;50.10
36244;DHT22;22284;49.956;19.816;2022-12-19T07:08:56;-9.49;49.98
36244;DHT22;22284;49.956;19.816;2022-12-19T07:11:57;-9.52;49.77
36244;DHT22;22284;49.956;19.816;2022-12-19T07:14:58;-9.56;50.29
36244;DHT22;22284;49.956;19.816;2022-12-19T07:18:00;-9.47;50.77
36244;DHT22;22284;49.956;19.816;2022-12-19T07:21:02;-9.42;50.85
36244;DHT22;22284;49.956;19.816;2022-12-19T07:24:06;-9.39;50.66
36244;DHT22;22284;49.956;19.816;2022-12-19T07:27:07;-9.31;50.40
36244;DHT22;22284;49.956;19.816;2022-12-19T07:30:10;-9.24;50.31
36244;DHT22;22284;49.956;19.816;2022-12-19T07:33:11;-9.15;50.20
36244;DHT22;22284;49.956;19.816;2022-12-19T07:36:12;-9.11;50.13
36244;DHT22;22284;49.956;19.816;2022-12-19T07:39:13;-9.08;50.01
36244;DHT22;22284;49.956;19.816;2022-12-19T07:42:14;-9.02;49.94
36244;DHT22;22284;49.956;19.816;2022-12-19T07:45:16;-8.95;49.79
36244;DHT22;22284;49.956;19.816;2022-12-19T07:48:17;-8.99;49.54
36244;DHT22;22284;49.956;19.816;2022-12-19T07:51:18;-9.01;49.61
36244;DHT22;22284;49.956;19.816;2022-12-19T07:54:19;-9.04;49.41
36244;DHT22;22284;49.956;19.816;2022-12-19T07:57:20;-9.12;49.49
36244;DHT22;22284;49.956;19.816;2022-12-19T08:00:21;-9.09;49.82
36244;DHT22;22284;49.956;19.816;2022-12-19T08:03:23;-9.09;49.98
36244;DHT22;22284;49.956;19.816;2022-12-19T08:06:25;-9.07;50.22
36244;DHT22;22284;49.956;19.816;2022-12-19T08:09:26;-9.04;50.32
36244;DHT22;22284;49.956;19.816;2022-12-19T08:12:27;-8.97;50.45
36244;DHT22;22284;49.956;19.816;2022-12-19T08:15:28;-8.90;50.61
36244;DHT22;22284;49.956;19.816;2022-12-19T08:18:29;-8.83;50.89
36244;DHT22;22284;49.956;19.816;2022-12-19T08:21:31;-8.83;50.90
36244;DHT22;22284;49.956;19.816;2022-12-19T08:24:32;-8.84;50.82
36244;DHT22;22284;49.956;19.816;2022-12-19T08:27:33;-8.80;51.00
36244;DHT22;22284;49.956;19.816;2022-12-19T08:30:39;-8.70;51.00
36244;DHT22;22284;49.956;19.816;2022-12-19T08:33:41;-8.53;51.45
36244;DHT22;22284;49.956;19.816;2022-12-19T08:36:42;-8.36;51.53
36244;DHT22;22284;49.956;19.816;2022-12-19T08:39:43;-8.19;51.73
36244;DHT22;22284;49.956;19.816;2022-12-19T08:42:44;-8.17;51.72
36244;DHT22;22284;49.956;19.816;2022-12-19T08:45:48;-8.18;51.64
36244;DHT22;22284;49.956;19.816;2022-12-19T08:48:50;-8.18;51.72
36244;DHT22;22284;49.956;19.816;2022-12-19T08:51:51;-8.14;51.78
36244;DHT22;22284;49.956;19.816;2022-12-19T08:54:52;-8.01;52.05
36244;DHT22;22284;49.956;19.816;2022-12-19T08:57:52;-7.87;52.40
36244;DHT22;22284;49.956;19.816;2022-12-19T09:00:54;-7.67;52.76
36244;DHT22;22284;49.956;19.816;2022-12-19T09:03:58;-7.51;53.06
36244;DHT22;22284;49.956;19.816;2022-12-19T09:06:59;-7.35;53.13
36244;DHT22;22284;49.956;19.816;2022-12-19T09:10:00;-7.25;53.25
36244;DHT22;22284;49.956;19.816;2022-12-19T09:13:01;-7.17;53.10
36244;DHT22;22284;49.956;19.816;2022-12-19T09:19:14;-6.83;53.68
36244;DHT22;22284;49.956;19.816;2022-12-19T09:22:16;-6.68;53.54
36244;DHT22;22284;49.956;19.816;2022-12-19T09:25:17;-6.54;53.56
36244;DHT22;22284;49.956;19.816;2022-12-19T09:28:18;-6.38;53.69
36244;DHT22;22284;49.956;19.816;2022-12-19T09:31:23;-6.31;53.87
36244;DHT22;22284;49.956;19.816;2022-12-19T09:34:26;-6.14;54.07
36244;DHT22;22284;49.956;19.816;2022-12-19T09:37:28;-6.00;54.40
36244;DHT22;22284;49.956;19.816;2022-12-19T09:40:34;-5.85;54.69
36244;DHT22;22284;49.956;19.816;2022-12-19T09:47:20;-5.60;55.30
36244;DHT22;22284;49.956;19.816;2022-12-19T09:50:53;-5.47;55.54
36244;DHT22;22284;49.956;19.816;2022-12-19T09:54:19;-5.29;55.57
36244;DHT22;22284;49.956;19.816;2022-12-19T09:57:38;-5.19;55.56
36244;DHT22;22284;49.956;19.816;2022-12-19T10:00:45;-4.93;55.81
36244;DHT22;22284;49.956;19.816;2022-12-19T10:04:01;-4.32;56.24
36244;DHT22;22284;49.956;19.816;2022-12-19T10:07:02;-4.25;54.72
36244;DHT22;22284;49.956;19.816;2022-12-19T10:10:04;-4.21;54.29
36244;DHT22;22284;49.956;19.816;2022-12-19T10:27:18;-3.99;55.24
36244;DHT22;22284;49.956;19.816;2022-12-19T10:30:21;-3.95;55.39
36244;DHT22;22284;49.956;19.816;2022-12-19T10:33:27;-3.87;55.70
36244;DHT22;22284;49.956;19.816;2022-12-19T10:36:31;-3.74;55.75
36244;DHT22;22284;49.956;19.816;2022-12-19T10:46:47;-3.69;55.77
36244;DHT22;22284;49.956;19.816;2022-12-19T10:49:50;-3.67;56.15
36244;DHT22;22284;49.956;19.816;2022-12-19T10:52:54;-3.79;56.11
36244;DHT22;22284;49.956;19.816;2022-12-19T10:56:02;-3.71;56.64
36244;DHT22;22284;49.956;19.816;2022-12-19T10:59:14;-3.59;56.75
36244;DHT22;22284;49.956;19.816;2022-12-19T11:02:23;-3.56;57.02
36244;DHT22;22284;49.956;19.816;2022-12-19T11:05:38;-3.60;57.16
36244;DHT22;22284;49.956;19.816;2022-12-19T11:08:35;-3.55;57.47
36244;DHT22;22284;49.956;19.816;2022-12-19T11:11:36;-3.49;57.89
36244;DHT22;22284;49.956;19.816;2022-12-19T11:14:41;-3.47;58.19
36244;DHT22;22284;49.956;19.816;2022-12-19T11:17:43;-3.40;58.61
36244;DHT22;22284;49.956;19.816;2022-12-19T11:21:03;-3.32;59.11
36244;DHT22;22284;49.956;19.816;2022-12-19T11:24:12;-3.28;58.83
36244;DHT22;22284;49.956;19.816;2022-12-19T11:27:42;-3.24;59.41
36244;DHT22;22284;49.956;19.816;2022-12-19T11:30:43;-3.10;59.42
36244;DHT22;22284;49.956;19.816;2022-12-19T11:34:00;-3.04;59.51
36244;DHT22;22284;49.956;19.816;2022-12-19T11:37:14;-3.03;59.75
36244;DHT22;22284;49.956;19.816;2022-12-19T11:40:19;-2.94;59.90
36244;DHT22;22284;49.956;19.816;2022-12-19T11:50:37;-2.69;60.09
36244;DHT22;22284;49.956;19.816;2022-12-19T11:54:29;-2.62;60.11
36244;DHT22;22284;49.956;19.816;2022-12-19T11:57:09;-2.54;60.18
36244;DHT22;22284;49.956;19.816;2022-12-19T12:00:18;-2.45;60.22
36244;DHT22;22284;49.956;19.816;2022-12-19T12:04:16;-2.45;60.23
36244;DHT22;22284;49.956;19.816;2022-12-19T12:07:14;-2.45;59.98
36244;DHT22;22284;49.956;19.816;2022-12-19T12:10:18;-2.42;60.63
36244;DHT22;22284;49.956;19.816;2022-12-19T12:13:57;-2.45;60.34
36244;DHT22;22284;49.956;19.816;2022-12-19T12:21:04;-2.51;60.95
36244;DHT22;22284;49.956;19.816;2022-12-19T12:32:25;-2.59;61.43
36244;DHT22;22284;49.956;19.816;2022-12-19T12:35:42;-2.51;61.59
36244;DHT22;22284;49.956;19.816;2022-12-19T12:45:24;-2.41;61.82
36244;DHT22;22284;49.956;19.816;2022-12-19T12:48:55;-2.39;62.15
36244;DHT22;22284;49.956;19.816;2022-12-19T12:51:56;-2.37;62.20
36244;DHT22;22284;49.956;19.816;2022-12-19T12:54:59;-2.38;62.24
36244;DHT22;22284;49.956;19.816;2022-12-19T12:58:02;-2.39;62.43
36244;DHT22;22284;49.956;19.816;2022-12-19T13:01:11;-2.34;62.73
36244;DHT22;22284;49.956;19.816;2022-12-19T13:04:20;-2.31;62.66
36244;DHT22;22284;49.956;19.816;2022-12-19T13:07:44;-2.33;62.65
36244;DHT22;22284;49.956;19.816;2022-12-19T13:10:58;-2.34;62.81
36244;DHT22;22284;49.956;19.816;2022-12-19T13:14:00;-2.33;63.17
36244;DHT22;22284;49.956;19.816;2022-12-19T13:17:09;-2.34;62.96
36244;DHT22;22284;49.956;19.816;2022-12-19T13:26:49;-2.15;63.06
36244;DHT22;22284;49.956;19.816;2022-12-19T13:33:14;-2.09;63.04
36244;DHT22;22284;49.956;19.816;2022-12-19T13:36:52;-2.06;62.93
36244;DHT22;22284;49.956;19.816;2022-12-19T13:40:00;-2.01;63.02
36244;DHT22;22284;49.956;19.816;2022-12-19T13:46:38;-2.06;62.67
36244;DHT22;22284;49.956;19.816;2022-12-19T13:49:42;-2.04;62.84
36244;DHT22;22284;49.956;19.816;2022-12-19T13:52:48;-2.06;62.76
36244;DHT22;22284;49.956;19.816;2022-12-19T13:55:59;-2.04;62.65
36244;DHT22;22284;49.956;19.816;2022-12-19T13:59:02;-2.04;62.52
36244;DHT22;22284;49.956;19.816;2022-12-19T14:02:24;-2.03;62.57
36244;DHT22;22284;49.956;19.816;2022-12-19T14:05:38;-1.99;62.62
36244;DHT22;22284;49.956;19.816;2022-12-19T14:08:39;-1.96;62.53
36244;DHT22;22284;49.956;19.816;2022-12-19T14:11:42;-1.93;62.42
36244;DHT22;22284;49.956;19.816;2022-12-19T14:14:51;-1.97;62.40
36244;DHT22;22284;49.956;19.816;2022-12-19T14:18:27;-2.03;62.25
36244;DHT22;22284;49.956;19.816;2022-12-19T14:21:29;-2.04;62.15
36244;DHT22;22284;49.956;19.816;2022-12-19T14:24:32;-2.04;62.06
36244;DHT22;22284;49.956;19.816;2022-12-19T14:27:41;-2.09;61.90
36244;DHT22;22284;49.956;19.816;2022-12-19T14:30:47;-2.10;61.76
36244;DHT22;22284;49.956;19.816;2022-12-19T14:33:50;-2.17;61.73
36244;DHT22;22284;49.956;19.816;2022-12-19T14:36:55;-2.24;61.85
36244;DHT22;22284;49.956;19.816;2022-12-19T14:40:06;-2.28;61.81
36244;DHT22;22284;49.956;19.816;2022-12-19T14:43:21;-2.31;61.66
36244;DHT22;22284;49.956;19.816;2022-12-19T14:46:41;-2.35;61.61
36244;DHT22;22284;49.956;19.816;2022-12-19T14:49:42;-2.41;61.34
36244;DHT22;22284;49.956;19.816;2022-12-19T14:52:43;-2.42;61.42
36244;DHT22;22284;49.956;19.816;2022-12-19T14:56:00;-2.46;61.32
36244;DHT22;22284;49.956;19.816;2022-12-19T14:58:56;-2.51;61.27
36244;DHT22;22284;49.956;19.816;2022-12-19T15:05:13;-2.66;61.45
36244;DHT22;22284;49.956;19.816;2022-12-19T15:08:29;-2.73;61.51
36244;DHT22;22284;49.956;19.816;2022-12-19T15:11:35;-2.79;61.55
36244;DHT22;22284;49.956;19.816;2022-12-19T15:15:14;-2.87;61.47
36244;DHT22;22284;49.956;19.816;2022-12-19T15:21:30;-2.99;61.26
36244;DHT22;22284;49.956;19.816;2022-12-19T15:24:32;-3.05;61.34
36244;DHT22;22284;49.956;19.816;2022-12-19T15:27:33;-3.12;61.18
36244;DHT22;22284;49.956;19.816;2022-12-19T15:30:36;-3.18;61.04
36244;DHT22;22284;49.956;19.816;2022-12-19T15:33:37;-3.22;60.93
36244;DHT22;22284;49.956;19.816;2022-12-19T15:36:38;-3.28;60.99
36244;DHT22;22284;49.956;19.816;2022-12-19T15:39:40;-3.35;60.99
36244;DHT22;22284;49.956;19.816;2022-12-19T15:42:45;-3.36;61.07
36244;DHT22;22284;49.956;19.816;2022-12-19T15:45:57;-3.45;61.27
36244;DHT22;22284;49.956;19.816;2022-12-19T15:48:56;-3.52;61.27
36244;DHT22;22284;49.956;19.816;2022-12-19T15:51:57;-3.55;61.11
36244;DHT22;22284;49.956;19.816;2022-12-19T15:54:58;-3.55;61.04
36244;DHT22;22284;49.956;19.816;2022-12-19T15:58:04;-3.55;61.10
36244;DHT22;22284;49.956;19.816;2022-12-19T16:01:05;-3.55;61.08
36244;DHT22;22284;49.956;19.816;2022-12-19T16:04:10;-3.59;61.13
36244;DHT22;22284;49.956;19.816;2022-12-19T16:07:18;-3.63;61.11
36244;DHT22;22284;49.956;19.816;2022-12-19T16:10:20;-3.69;61.17
36244;DHT22;22284;49.956;19.816;2022-12-19T16:13:24;-3.71;61.37
36244;DHT22;22284;49.956;19.816;2022-12-19T16:16:25;-3.74;61.24
36244;DHT22;22284;49.956;19.816;2022-12-19T16:19:29;-3.81;61.19
36244;DHT22;22284;49.956;19.816;2022-12-19T16:22:30;-3.87;60.81
36244;DHT22;22284;49.956;19.816;2022-12-19T16:25:44;-3.91;60.60
36244;DHT22;22284;49.956;19.816;2022-12-19T16:28:45;-3.95;60.45
36244;DHT22;22284;49.956;19.816;2022-12-19T16:31:46;-3.99;60.35
36244;DHT22;22284;49.956;19.816;2022-12-19T16:34:47;-3.98;60.42
36244;DHT22;22284;49.956;19.816;2022-12-19T16:37:48;-4.04;60.34
36244;DHT22;22284;49.956;19.816;2022-12-19T16:40:51;-4.07;60.34
36244;DHT22;22284;49.956;19.816;2022-12-19T16:43:52;-4.14;60.17
36244;DHT22;22284;49.956;19.816;2022-12-19T16:46:53;-4.22;60.02
36244;DHT22;22284;49.956;19.816;2022-12-19T16:49:54;-4.27;59.80
36244;DHT22;22284;49.956;19.816;2022-12-19T16:52:56;-4.35;59.74
36244;DHT22;22284;49.956;19.816;2022-12-19T16:55:58;-4.39;59.76
36244;DHT22;22284;49.956;19.816;2022-12-19T16:59:03;-4.44;59.67
36244;DHT22;22284;49.956;19.816;2022-12-19T17:05:41;-4.61;59.76
36244;DHT22;22284;49.956;19.816;2022-12-19T17:08:43;-4.67;59.68
36244;DHT22;22284;49.956;19.816;2022-12-19T17:11:52;-4.70;59.69
36244;DHT22;22284;49.956;19.816;2022-12-19T17:14:53;-4.70;59.57
36244;DHT22;22284;49.956;19.816;2022-12-19T17:18:01;-4.71;59.68
36244;DHT22;22284;49.956;19.816;2022-12-19T17:21:03;-4.72;59.67
36244;DHT22;22284;49.956;19.816;2022-12-19T17:24:09;-4.75;59.91
36244;DHT22;22284;49.956;19.816;2022-12-19T17:27:09;-4.80;60.38
36244;DHT22;22284;49.956;19.816;2022-12-19T17:30:12;-4.80;60.58
36244;DHT22;22284;49.956;19.816;2022-12-19T17:33:15;-4.78;60.52
36244;DHT22;22284;49.956;19.816;2022-12-19T17:36:16;-4.84;60.13
36244;DHT22;22284;49.956;19.816;2022-12-19T17:39:21;-4.85;59.88
36244;DHT22;22284;49.956;19.816;2022-12-19T17:42:24;-4.86;59.77
36244;DHT22;22284;49.956;19.816;2022-12-19T17:45:28;-4.86;59.73
36244;DHT22;22284;49.956;19.816;2022-12-19T17:48:31;-4.85;59.68
36244;DHT22;22284;49.956;19.816;2022-12-19T17:51:33;-4.88;59.33
36244;DHT22;22284;49.956;19.816;2022-12-19T17:54:33;-4.88;59.45
36244;DHT22;22284;49.956;19.816;2022-12-19T17:57:35;-4.93;59.31
36244;DHT22;22284;49.956;19.816;2022-12-19T18:00:37;-4.96;59.12
36244;DHT22;22284;49.956;19.816;2022-12-19T18:03:39;-5.04;58.92
36244;DHT22;22284;49.956;19.816;2022-12-19T18:06:40;-5.08;59.10
36244;DHT22;22284;49.956;19.816;2022-12-19T18:09:42;-5.09;59.33
36244;DHT22;22284;49.956;19.816;2022-12-19T18:12:43;-5.08;59.35
36244;DHT22;22284;49.956;19.816;2022-12-19T18:15:45;-5.12;59.46
36244;DHT22;22284;49.956;19.816;2022-12-19T18:18:46;-5.15;59.62
36244;DHT22;22284;49.956;19.816;2022-12-19T18:21:48;-5.25;59.61
36244;DHT22;22284;49.956;19.816;2022-12-19T18:24:49;-5.25;59.54
36244;DHT22;22284;49.956;19.816;2022-12-19T18:27:51;-5.22;59.47
36244;DHT22;22284;49.956;19.816;2022-12-19T18:31:00;-5.25;59.45
36244;DHT22;22284;49.956;19.816;2022-12-19T18:34:03;-5.33;59.53
36244;DHT22;22284;49.956;19.816;2022-12-19T18:37:12;-5.34;59.55
36244;DHT22;22284;49.956;19.816;2022-12-19T18:40:18;-5.33;59.73
36244;DHT22;22284;49.956;19.816;2022-12-19T18:43:20;-5.34;59.79
36244;DHT22;22284;49.956;19.816;2022-12-19T18:46:26;-5.33;59.84
36244;DHT22;22284;49.956;19.816;2022-12-19T18:49:27;-5.27;59.84
36244;DHT22;22284;49.956;19.816;2022-12-19T18:52:28;-5.27;59.85
36244;DHT22;22284;49.956;19.816;2022-12-19T18:55:29;-5.23;59.95
36244;DHT22;22284;49.956;19.816;2022-12-19T18:58:32;-5.19;60.05
36244;DHT22;22284;49.956;19.816;2022-12-19T19:01:37;-5.17;60.12
36244;DHT22;22284;49.956;19.816;2022-12-19T19:04:38;-5.12;60.07
36244;DHT22;22284;49.956;19.816;2022-12-19T19:07:39;-5.15;60.25
36244;DHT22;22284;49.956;19.816;2022-12-19T19:10:40;-5.12;60.40
36244;DHT22;22284;49.956;19.816;2022-12-19T19:13:41;-5.05;60.57
36244;DHT22;22284;49.956;19.816;2022-12-19T19:16:42;-4.98;60.70
36244;DHT22;22284;49.956;19.816;2022-12-19T19:19:44;-4.93;60.82
36244;DHT22;22284;49.956;19.816;2022-12-19T19:22:45;-4.91;60.95
36244;DHT22;22284;49.956;19.816;2022-12-19T19:25:46;-4.85;61.04
36244;DHT22;22284;49.956;19.816;2022-12-19T19:28:47;-4.80;61.02
36244;DHT22;22284;49.956;19.816;2022-12-19T19:31:50;-4.71;61.14
36244;DHT22;22284;49.956;19.816;2022-12-19T19:34:51;-4.63;61.21
36244;DHT22;22284;49.956;19.816;2022-12-19T19:37:55;-4.58;61.46
36244;DHT22;22284;49.956;19.816;2022-12-19T19:40:57;-4.53;61.61
36244;DHT22;22284;49.956;19.816;2022-12-19T19:43:58;-4.52;61.56
36244;DHT22;22284;49.956;19.816;2022-12-19T19:46:59;-4.49;61.67
36244;DHT22;22284;49.956;19.816;2022-12-19T19:50:04;-4.40;61.81
36244;DHT22;22284;49.956;19.816;2022-12-19T19:53:05;-4.36;61.94
36244;DHT22;22284;49.956;19.816;2022-12-19T19:56:07;-4.26;62.01
36244;DHT22;22284;49.956;19.816;2022-12-19T19:59:08;-4.22;62.16
36244;DHT22;22284;49.956;19.816;2022-12-19T20:02:09;-4.21;62.22
36244;DHT22;22284;49.956;19.816;2022-12-19T20:05:11;-4.12;62.40
36244;DHT22;22284;49.956;19.816;2022-12-19T20:08:13;-4.04;62.56
36244;DHT22;22284;49.956;19.816;2022-12-19T20:11:15;-3.98;62.64
36244;DHT22;22284;49.956;19.816;2022-12-19T20:14:16;-3.90;62.69
36244;DHT22;22284;49.956;19.816;2022-12-19T20:17:17;-3.83;62.60
36244;DHT22;22284;49.956;19.816;2022-12-19T20:20:18;-3.81;62.68
36244;DHT22;22284;49.956;19.816;2022-12-19T20:23:19;-3.73;62.77
36244;DHT22;22284;49.956;19.816;2022-12-19T20:26:20;-3.64;62.91
36244;DHT22;22284;49.956;19.816;2022-12-19T20:29:21;-3.64;62.84
36244;DHT22;22284;49.956;19.816;2022-12-19T20:32:22;-3.63;62.79
36244;DHT22;22284;49.956;19.816;2022-12-19T20:35:23;-3.57;62.94
36244;DHT22;22284;49.956;19.816;2022-12-19T20:38:24;-3.63;62.99
36244;DHT22;22284;49.956;19.816;2022-12-19T20:41:25;-3.56;63.13
36244;DHT22;22284;49.956;19.816;2022-12-19T20:44:26;-3.53;63.13
36244;DHT22;22284;49.956;19.816;2022-12-19T20:47:27;-3.50;63.31
36244;DHT22;22284;49.956;19.816;2022-12-19T20:50:28;-3.46;63.40
36244;DHT22;22284;49.956;19.816;2022-12-19T20:53:32;-3.45;63.58
36244;DHT22;22284;49.956;19.816;2022-12-19T20:56:33;-3.38;63.65
36244;DHT22;22284;49.956;19.816;2022-12-19T20:59:35;-3.36;63.76